createdAt,value
2022-09-16T00:00:54.406Z,7.53
2022-09-16T00:04:55.684Z,4.10
2022-09-16T00:09:00.365Z,4.87
2022-09-16T00:13:01.506Z,4.80
2022-09-16T00:17:02.842Z,5.47
2022-09-16T00:21:09.300Z,4.40
2022-09-16T00:25:10.272Z,3.47
2022-09-16T00:29:11.317Z,4.63
2022-09-16T00:33:12.392Z,9.27
2022-09-16T00:37:13.447Z,3.13
2022-09-16T00:41:18.288Z,6.17
2022-09-16T00:45:26.642Z,5.17
2022-09-16T00:49:30.551Z,7.63
2022-09-16T00:53:38.377Z,2.13
2022-09-16T00:57:40.126Z,6.73
2022-09-16T01:01:43.918Z,2.70
2022-09-16T01:05:45.975Z,9.05
2022-09-16T01:09:47.017Z,5.53
2022-09-16T01:13:49.245Z,4.33
2022-09-16T01:18:06.266Z,6.90
2022-09-16T01:22:22.827Z,5.97
2022-09-16T01:27:03.007Z,6.10
2022-09-16T01:31:16.730Z,6.10
2022-09-16T01:35:33.057Z,5.40
2022-09-16T01:39:49.598Z,4.67
2022-09-16T01:44:00.545Z,6.07
2022-09-16T01:48:22.600Z,3.90
2022-09-16T01:52:27.294Z,6.13
2022-09-16T01:56:32.175Z,5.13
2022-09-16T02:00:33.661Z,4.30
2022-09-16T02:04:38.815Z,2.90
2022-09-16T02:08:46.727Z,5.40
2022-09-16T02:12:49.877Z,4.80
2022-09-16T02:17:00.770Z,4.43
2022-09-16T02:21:05.286Z,2.83
2022-09-16T02:25:08.105Z,4.70
2022-09-16T02:29:15.738Z,4.43
2022-09-16T02:33:18.190Z,4.87
2022-09-16T02:37:23.011Z,5.27
2022-09-16T02:41:24.417Z,6.30
2022-09-16T02:45:32.224Z,2.77
2022-09-16T02:49:43.636Z,2.83
2022-09-16T02:53:48.424Z,9.30
2022-09-16T02:57:50.030Z,6.67
2022-09-16T03:01:51.260Z,6.97
2022-09-16T03:06:07.785Z,4.67
2022-09-16T03:10:11.295Z,6.23
2022-09-16T03:14:21.595Z,7.10
2022-09-16T03:18:44.489Z,7.17
2022-09-16T03:27:08.985Z,9.57
2022-09-16T03:31:19.472Z,3.37
2022-09-16T03:35:33.656Z,3.27
2022-09-16T03:39:36.231Z,6.73
2022-09-16T03:43:37.344Z,7.47
2022-09-16T03:47:38.670Z,4.13
2022-09-16T03:51:39.762Z,6.33
2022-09-16T03:55:40.719Z,4.20
2022-09-16T03:59:41.665Z,9.20
2022-09-16T04:03:42.721Z,4.93
2022-09-16T04:07:43.696Z,8.67
2022-09-16T04:11:44.866Z,3.13
2022-09-16T04:15:45.981Z,5.67
2022-09-16T04:19:46.977Z,7.30
2022-09-16T04:23:49.119Z,6.90
2022-09-16T04:27:50.096Z,7.87
2022-09-16T04:31:50.930Z,7.27
2022-09-16T04:35:51.931Z,3.57
2022-09-16T04:39:53.021Z,6.33
2022-09-16T04:43:56.789Z,11.70
2022-09-16T04:47:58.751Z,5.90
2022-09-16T04:51:59.748Z,7.47
2022-09-16T04:56:06.412Z,2.93
2022-09-16T05:00:09.243Z,8.60
2022-09-16T05:04:10.168Z,6.23
2022-09-16T05:08:11.306Z,3.87
2022-09-16T05:12:12.192Z,4.63
2022-09-16T05:16:19.373Z,11.60
2022-09-16T05:20:20.416Z,6.23
2022-09-16T05:24:21.497Z,6.33
2022-09-16T05:28:22.567Z,10.07
2022-09-16T05:32:23.703Z,4.93
2022-09-16T05:36:27.208Z,5.27
2022-09-16T05:40:28.477Z,6.20
2022-09-16T05:44:29.601Z,5.23
2022-09-16T05:48:31.666Z,14.73
2022-09-16T05:52:32.781Z,9.20
2022-09-16T05:56:33.946Z,8.10
2022-09-16T06:00:34.903Z,7.83
2022-09-16T06:04:36.024Z,8.23
2022-09-16T06:08:37.162Z,9.27
2022-09-16T06:12:38.366Z,7.17
2022-09-16T06:16:40.241Z,10.60
2022-09-16T06:20:41.188Z,8.93
2022-09-16T06:24:42.175Z,9.17
2022-09-16T06:28:43.626Z,13.03
2022-09-16T06:32:44.635Z,6.20
2022-09-16T06:36:46.509Z,12.07
2022-09-16T06:40:48.603Z,6.63
2022-09-16T06:44:49.724Z,12.20
2022-09-16T06:48:53.762Z,3.40
2022-09-16T06:52:54.780Z,11.47
2022-09-16T06:56:55.778Z,8.53
2022-09-16T07:00:56.820Z,4.23
2022-09-16T07:04:57.740Z,5.53
2022-09-16T07:08:59.000Z,6.00
2022-09-16T07:13:00.056Z,8.43
2022-09-16T07:17:01.774Z,4.77
2022-09-16T07:21:12.165Z,5.30
2022-09-16T07:25:13.365Z,9.10
2022-09-16T07:29:16.823Z,12.33
2022-09-16T07:33:17.781Z,5.50
2022-09-16T07:37:19.462Z,6.83
2022-09-16T07:41:23.414Z,8.33
2022-09-16T07:45:25.179Z,7.67
2022-09-16T07:49:26.516Z,9.10
2022-09-16T07:53:29.615Z,4.83
2022-09-16T07:57:30.780Z,5.80
2022-09-16T08:01:32.105Z,6.50
2022-09-16T08:05:34.596Z,6.87
2022-09-16T08:09:41.090Z,7.50
2022-09-16T08:13:43.018Z,8.70
2022-09-16T08:17:46.184Z,11.43
2022-09-16T08:21:47.695Z,6.90
2022-09-16T08:25:59.293Z,5.17
2022-09-16T08:30:05.057Z,4.50
2022-09-16T08:34:06.236Z,5.60
2022-09-16T08:38:07.263Z,6.13
2022-09-16T08:42:33.733Z,6.43
2022-09-16T08:46:50.011Z,5.40
2022-09-16T08:50:51.879Z,3.27
2022-09-16T08:54:56.707Z,4.63
2022-09-16T08:59:01.218Z,2.77
2022-09-16T09:03:09.541Z,7.53
2022-09-16T09:07:25.636Z,4.80
2022-09-16T09:11:45.638Z,8.23
2022-09-16T09:16:02.703Z,3.57
2022-09-16T09:20:25.812Z,5.63
2022-09-16T09:24:39.306Z,5.50
2022-09-16T09:29:01.187Z,7.53
2022-09-16T09:33:44.517Z,5.37
2022-09-16T09:37:45.679Z,6.80
2022-09-16T09:41:50.816Z,4.77
2022-09-16T09:46:07.848Z,4.07
2022-09-16T09:50:15.762Z,6.60
2022-09-16T09:54:20.792Z,2.43
2022-09-16T09:58:34.735Z,5.80
2022-09-16T10:02:39.250Z,6.43
2022-09-16T10:06:41.675Z,5.73
2022-09-16T10:10:50.113Z,7.00
2022-09-16T10:14:51.124Z,2.50
2022-09-16T10:19:08.493Z,5.37
2022-09-16T10:23:15.426Z,1.60
2022-09-16T10:27:26.697Z,2.17
2022-09-16T10:31:34.288Z,2.30
2022-09-16T10:35:37.143Z,2.70
2022-09-16T10:39:44.281Z,2.43
2022-09-16T10:43:55.219Z,1.57
2022-09-16T10:48:02.140Z,2.17
2022-09-16T10:52:15.882Z,4.40
2022-09-16T10:56:20.015Z,3.00
2022-09-16T11:00:24.738Z,3.33
2022-09-16T11:04:56.931Z,4.13
2022-09-16T11:09:07.605Z,3.53
2022-09-16T11:13:18.505Z,2.73
2022-09-16T11:17:54.281Z,3.13
2022-09-16T11:22:27.535Z,3.53
2022-09-16T11:26:56.796Z,2.13
2022-09-16T11:31:19.997Z,3.03
2022-09-16T11:35:31.190Z,1.70
2022-09-16T11:39:48.221Z,1.87
2022-09-16T11:44:11.294Z,1.77
2022-09-16T11:48:25.337Z,3.83
2022-09-16T11:52:47.168Z,2.10
2022-09-16T11:57:01.347Z,3.70
2022-09-16T12:01:06.258Z,11.53
2022-09-16T12:05:23.552Z,11.67
2022-09-16T12:09:55.376Z,2.90
2022-09-16T12:14:05.935Z,3.10
2022-09-16T12:18:32.992Z,2.03
2022-09-16T12:22:37.981Z,2.70
2022-09-16T12:26:45.485Z,1.90
2022-09-16T12:30:50.731Z,3.03
2022-09-16T12:34:58.486Z,1.87
2022-09-16T12:39:00.175Z,2.27
2022-09-16T12:43:11.105Z,3.40
2022-09-16T12:47:34.570Z,2.93
2022-09-16T12:51:50.493Z,2.70
2022-09-16T12:56:11.315Z,1.70
2022-09-16T13:00:21.671Z,1.27
2022-09-16T13:04:30.626Z,1.63
2022-09-16T13:08:33.806Z,3.03
2022-09-16T13:12:41.365Z,1.97
2022-09-16T13:16:38.865Z,4.57
2022-09-16T13:20:41.851Z,4.37
2022-09-16T13:24:46.810Z,3.17
2022-09-16T13:28:48.322Z,1.70
2022-09-16T13:32:56.682Z,4.73
2022-09-16T13:36:57.974Z,1.20
2022-09-16T13:41:01.118Z,3.33
2022-09-16T13:45:02.144Z,1.90
2022-09-16T13:49:09.054Z,1.47
2022-09-16T13:53:13.962Z,2.87
2022-09-16T13:57:25.312Z,2.37
2022-09-16T14:01:55.585Z,3.40
2022-09-16T14:05:55.208Z,2.30
2022-09-16T14:10:02.498Z,2.57
2022-09-16T14:14:29.827Z,5.03
2022-09-16T14:18:17.196Z,1.87
2022-09-16T14:22:23.853Z,3.60
2022-09-16T14:26:24.955Z,3.17
2022-09-16T14:30:25.811Z,1.90
2022-09-16T14:34:30.669Z,2.57
2022-09-16T14:38:45.536Z,1.57
2022-09-16T14:42:41.505Z,1.63
2022-09-16T14:46:45.819Z,1.73
2022-09-16T14:50:49.547Z,2.13
2022-09-16T14:54:51.511Z,1.97
2022-09-16T14:58:54.085Z,1.97
2022-09-16T15:03:01.876Z,1.50
2022-09-16T15:07:24.215Z,3.83
2022-09-16T15:11:50.237Z,2.37
2022-09-16T15:15:41.862Z,5.03
2022-09-16T15:19:46.855Z,10.53
2022-09-16T15:23:50.549Z,2.03
2022-09-16T15:27:51.692Z,1.90
2022-09-16T15:31:52.848Z,2.47
2022-09-16T15:35:54.079Z,1.93
2022-09-16T15:39:55.223Z,1.30
2022-09-16T15:43:59.168Z,2.03
2022-09-16T15:48:03.593Z,4.10
2022-09-16T15:52:08.775Z,1.80
2022-09-16T15:56:28.508Z,2.97
2022-09-16T16:00:33.264Z,1.90
2022-09-16T16:04:34.477Z,4.30
2022-09-16T16:08:48.266Z,4.20
2022-09-16T16:12:51.380Z,3.00
2022-09-16T16:17:11.855Z,3.63
2022-09-16T16:20:55.572Z,2.43
2022-09-16T16:24:56.534Z,1.10
2022-09-16T16:28:57.674Z,3.27
2022-09-16T16:32:58.702Z,2.80
2022-09-16T16:37:00.083Z,3.00
2022-09-16T16:41:01.131Z,1.40
2022-09-16T16:45:02.997Z,1.63
2022-09-16T16:49:04.468Z,4.43
2022-09-16T16:53:05.965Z,1.20
2022-09-16T16:57:06.942Z,1.47
2022-09-16T17:01:15.831Z,3.00
2022-09-16T17:05:16.926Z,1.37
2022-09-16T17:09:17.863Z,1.93
2022-09-16T17:13:18.853Z,2.20
2022-09-16T17:17:20.134Z,2.97
2022-09-16T17:21:24.393Z,2.00
2022-09-16T17:25:25.598Z,1.77
2022-09-16T17:29:26.944Z,2.33
2022-09-16T17:33:27.923Z,4.27
2022-09-16T17:37:28.972Z,2.53
2022-09-16T17:41:30.658Z,1.57
2022-09-16T17:45:32.696Z,2.63
2022-09-16T17:49:33.851Z,3.37
2022-09-16T17:53:35.865Z,1.87
2022-09-16T17:57:37.798Z,1.80
2022-09-16T18:01:39.393Z,4.33
2022-09-16T18:05:40.502Z,2.27
2022-09-16T18:09:41.443Z,2.50
2022-09-16T18:13:43.582Z,2.60
2022-09-16T18:17:44.737Z,2.33
2022-09-16T18:21:45.781Z,1.97
2022-09-16T18:25:47.096Z,3.50
2022-09-16T18:29:48.187Z,2.97
2022-09-16T18:33:53.637Z,4.57
2022-09-16T18:37:54.933Z,2.70
2022-09-16T18:41:55.894Z,1.73
2022-09-16T18:46:12.759Z,2.80
2022-09-16T18:50:14.818Z,2.43
2022-09-16T18:54:26.420Z,2.13
2022-09-16T18:58:27.393Z,2.30
2022-09-16T19:02:28.864Z,2.47
2022-09-16T19:06:33.051Z,4.17
2022-09-16T19:10:34.195Z,3.23
2022-09-16T19:14:35.342Z,6.27
2022-09-16T19:18:36.456Z,1.87
2022-09-16T19:22:37.570Z,1.60
2022-09-16T19:26:39.022Z,2.07
2022-09-16T19:30:40.105Z,2.47
2022-09-16T19:34:41.383Z,4.27
2022-09-16T19:38:42.892Z,3.17
2022-09-16T19:42:44.026Z,3.40
2022-09-16T19:46:47.164Z,4.47
2022-09-16T19:50:52.153Z,2.47
2022-09-16T19:54:53.130Z,2.90
2022-09-16T19:58:54.784Z,3.07
2022-09-16T20:02:55.993Z,6.83
2022-09-16T20:06:57.126Z,4.60
2022-09-16T20:11:03.107Z,3.77
2022-09-16T20:15:04.786Z,5.63
2022-09-16T20:19:11.826Z,4.85
2022-09-16T20:23:12.833Z,3.40
2022-09-16T20:27:14.005Z,4.70
2022-09-16T20:31:17.669Z,4.37
2022-09-16T20:35:19.434Z,3.50
2022-09-16T20:39:21.540Z,9.47
2022-09-16T20:43:22.618Z,3.27
2022-09-16T20:47:25.585Z,3.17
2022-09-16T20:51:30.904Z,3.73
2022-09-16T20:55:31.920Z,3.40
2022-09-16T20:59:33.087Z,3.20
2022-09-16T21:03:34.480Z,4.30
2022-09-16T21:07:35.675Z,7.17
2022-09-16T21:11:40.124Z,4.37
2022-09-16T21:15:41.016Z,10.33
2022-09-16T21:19:41.991Z,6.00
2022-09-16T21:23:46.480Z,8.60
2022-09-16T21:27:47.638Z,10.73
2022-09-16T21:31:48.751Z,8.87
2022-09-16T21:35:51.317Z,8.33
2022-09-16T21:39:52.542Z,10.57
2022-09-16T21:43:56.408Z,7.73
2022-09-16T21:47:57.447Z,10.17
2022-09-16T21:51:58.436Z,8.47
2022-09-16T21:56:05.582Z,7.90
2022-09-16T22:00:29.864Z,10.87
2022-09-16T22:04:30.956Z,9.40
2022-09-16T22:08:32.240Z,10.10
2022-09-16T22:12:33.344Z,9.43
2022-09-16T22:16:36.796Z,10.83
2022-09-16T22:20:37.855Z,11.10
2022-09-16T22:24:39.595Z,10.63
2022-09-16T22:28:41.252Z,10.23
2022-09-16T22:32:42.609Z,10.07
2022-09-16T22:36:43.645Z,15.47
2022-09-16T22:40:44.505Z,10.33
2022-09-16T22:44:45.760Z,14.43
2022-09-16T22:48:47.950Z,11.37
2022-09-16T22:52:49.050Z,12.17
2022-09-16T22:56:50.056Z,16.77
2022-09-16T23:00:51.398Z,10.30
2022-09-16T23:04:53.428Z,12.27
2022-09-16T23:08:54.717Z,9.93
2022-09-16T23:12:57.554Z,18.10
2022-09-16T23:16:58.722Z,20.77
2022-09-16T23:21:02.046Z,13.17
2022-09-16T23:25:03.219Z,10.43
2022-09-16T23:29:07.160Z,11.00
2022-09-16T23:33:08.224Z,9.73
2022-09-16T23:37:09.387Z,10.83
2022-09-16T23:41:16.564Z,9.40
2022-09-16T23:45:17.579Z,12.50
2022-09-16T23:49:19.835Z,9.67
2022-09-16T23:53:21.360Z,16.37
2022-09-16T23:57:22.411Z,9.13
